BISN weather

Svínafell Airport
Svínafell, Eastern Region, Iceland

Public forecast

Using degrees Celsius for public forecast. Weather courtesy of forecast.io.

Closest aviation weather report (METAR) to Svínafell Airport

Closest report is Hornafjörður Airport, 6.6 nm (12.3 km) SE. Retrieved 2020/05/25 10:00 UTC (48 minutes ago):

BIHN 251000Z 17008KT 9999 BR FEW006 SCT010 BKN025 09/08 Q0999

Closest aviation forecast (TAF) to Svínafell Airport

Closest forecast is Egilsstaðir Airport, 59.6 nm (110.3 km) NNE. Retrieved 2020/05/25 09:00 UTC (2 hours ago):

TAF BIEG 250759Z 2509/2609 19010KT 9999 SCT040 TX12/2516Z TN06/2606Z PROB40 TEMPO 2511/2515 SHRA BKN025 BECMG 2514/2516 20020KT BECMG 2603/2605 20025G35KT